createdAt,value
2023-05-06T00:00:17.607Z,12.50
2023-05-06T00:03:19.518Z,15.30
2023-05-06T00:06:21.374Z,16.83
2023-05-06T00:09:24.356Z,17.17
2023-05-06T00:12:26.250Z,17.85
2023-05-06T00:15:29.213Z,18.10
2023-05-06T00:18:32.562Z,19.55
2023-05-06T00:21:34.431Z,19.27
2023-05-06T00:24:36.245Z,18.45
2023-05-06T00:27:38.831Z,18.58
2023-05-06T00:30:40.413Z,18.25
2023-05-06T00:33:42.612Z,19.00
2023-05-06T00:36:44.595Z,19.58
2023-05-06T00:39:46.353Z,19.30
2023-05-06T00:42:48.071Z,20.17
2023-05-06T00:45:51.348Z,19.63
2023-05-06T00:48:53.580Z,22.08
2023-05-06T00:51:56.531Z,20.92
2023-05-06T00:54:58.655Z,20.58
2023-05-06T00:58:01.222Z,20.20
2023-05-06T01:01:03.238Z,20.35
2023-05-06T01:04:05.061Z,21.45
2023-05-06T01:07:44.016Z,22.40
2023-05-06T01:10:57.780Z,20.38
2023-05-06T01:14:07.874Z,19.00
2023-05-06T01:17:12.984Z,21.08
2023-05-06T01:20:18.291Z,20.98
2023-05-06T01:23:20.263Z,18.80
2023-05-06T01:26:22.757Z,20.50
2023-05-06T01:29:24.393Z,19.20
2023-05-06T01:32:58.500Z,17.92
2023-05-06T01:36:08.680Z,19.80
2023-05-06T01:39:28.952Z,19.95
2023-05-06T01:42:32.173Z,18.23
2023-05-06T01:45:36.716Z,14.73
2023-05-06T01:48:39.955Z,14.43
2023-05-06T01:51:48.067Z,15.77
2023-05-06T01:54:49.664Z,15.88
2023-05-06T01:57:51.740Z,15.57
2023-05-06T02:00:53.531Z,17.85
2023-05-06T02:03:55.761Z,16.98
2023-05-06T02:06:58.675Z,15.25
2023-05-06T02:10:00.341Z,14.98
2023-05-06T02:13:02.570Z,14.63
2023-05-06T02:16:04.726Z,13.63
2023-05-06T02:19:07.704Z,12.40
2023-05-06T02:22:09.438Z,13.02
2023-05-06T02:25:11.429Z,13.32
2023-05-06T02:28:13.399Z,12.95
2023-05-06T02:31:16.294Z,11.57
2023-05-06T02:34:18.037Z,12.88
2023-05-06T02:37:19.954Z,12.73
2023-05-06T02:40:21.725Z,15.55
2023-05-06T02:43:23.390Z,10.85
2023-05-06T02:46:25.230Z,13.48
2023-05-06T02:49:27.191Z,11.00
2023-05-06T02:52:29.077Z,9.32
2023-05-06T02:55:30.932Z,11.23
2023-05-06T02:58:32.846Z,10.35
2023-05-06T03:01:34.728Z,10.20
2023-05-06T03:04:36.559Z,11.02
2023-05-06T03:07:38.914Z,10.95
2023-05-06T03:10:42.051Z,11.23
2023-05-06T03:13:44.104Z,8.35
2023-05-06T03:16:46.053Z,8.60
2023-05-06T03:19:50.765Z,8.75
2023-05-06T03:22:53.520Z,7.72
2023-05-06T03:25:57.151Z,11.18
2023-05-06T03:28:59.151Z,8.25
2023-05-06T03:32:07.320Z,9.18
2023-05-06T03:35:15.810Z,8.15
2023-05-06T03:38:21.273Z,8.60
2023-05-06T03:41:29.923Z,8.10
2023-05-06T03:44:31.933Z,8.20
2023-05-06T03:47:35.386Z,8.35
2023-05-06T03:50:39.185Z,8.25
2023-05-06T03:53:41.158Z,8.93
2023-05-06T03:56:42.786Z,9.00
2023-05-06T03:59:45.000Z,9.85
2023-05-06T04:02:46.926Z,9.45
2023-05-06T04:05:56.293Z,10.27
2023-05-06T04:09:00.990Z,11.05
2023-05-06T04:12:03.815Z,11.77
2023-05-06T04:15:07.464Z,11.27
2023-05-06T04:18:10.354Z,13.40
2023-05-06T04:21:15.956Z,10.20
2023-05-06T04:24:23.187Z,13.40
2023-05-06T04:27:27.716Z,11.68
2023-05-06T04:30:30.228Z,10.77
2023-05-06T04:33:32.910Z,15.25
2023-05-06T04:36:38.346Z,14.65
2023-05-06T04:40:02.237Z,13.15
2023-05-06T04:43:06.366Z,14.18
2023-05-06T04:46:08.741Z,14.75
2023-05-06T04:49:12.917Z,14.73
2023-05-06T04:52:15.604Z,14.75
2023-05-06T04:55:17.457Z,13.35
2023-05-06T04:58:23.687Z,15.00
2023-05-06T05:01:26.453Z,17.15
2023-05-06T05:04:28.120Z,15.30
2023-05-06T05:07:29.904Z,16.30
2023-05-06T05:10:31.968Z,15.43
2023-05-06T05:13:34.967Z,15.88
2023-05-06T05:16:38.432Z,16.20
2023-05-06T05:19:41.231Z,15.40
2023-05-06T05:22:44.647Z,17.00
2023-05-06T05:25:46.447Z,20.13
2023-05-06T05:28:48.651Z,15.43
2023-05-06T05:31:50.363Z,19.73
2023-05-06T05:34:53.156Z,17.15
2023-05-06T05:37:55.146Z,17.23
2023-05-06T05:40:58.222Z,21.17
2023-05-06T05:44:00.388Z,19.70
2023-05-06T05:47:02.921Z,19.33
2023-05-06T05:50:06.462Z,19.17
2023-05-06T05:53:08.545Z,16.17
2023-05-06T05:56:12.446Z,22.20
2023-05-06T05:59:14.338Z,17.42
2023-05-06T06:02:17.521Z,18.80
2023-05-06T06:05:19.516Z,18.35
2023-05-06T06:08:21.843Z,19.75
2023-05-06T06:11:28.661Z,18.92
2023-05-06T06:14:30.578Z,16.80
2023-05-06T06:17:32.730Z,16.27
2023-05-06T06:20:35.511Z,17.73
2023-05-06T06:23:37.773Z,19.30
2023-05-06T06:26:40.836Z,16.80
2023-05-06T06:29:42.559Z,17.98
2023-05-06T06:32:49.764Z,18.27
2023-05-06T06:35:51.450Z,16.83
2023-05-06T06:38:53.135Z,16.10
2023-05-06T06:41:58.133Z,16.70
2023-05-06T06:44:59.735Z,15.77
2023-05-06T06:48:01.765Z,15.77
2023-05-06T06:51:03.774Z,15.32
2023-05-06T06:54:05.698Z,16.20
2023-05-06T06:57:07.427Z,15.93
2023-05-06T07:00:10.340Z,15.60
2023-05-06T07:03:15.693Z,16.52
2023-05-06T07:06:17.402Z,18.65
2023-05-06T07:09:19.144Z,15.60
2023-05-06T07:12:20.911Z,17.98
2023-05-06T07:15:22.880Z,15.07
2023-05-06T07:18:25.104Z,16.45
2023-05-06T07:21:27.189Z,16.23
2023-05-06T07:24:28.758Z,14.88
2023-05-06T07:27:30.784Z,14.50
2023-05-06T07:30:32.804Z,13.18
2023-05-06T07:33:34.587Z,14.93
2023-05-06T07:36:40.662Z,13.27
2023-05-06T07:39:43.206Z,13.95
2023-05-06T07:42:44.967Z,12.98
2023-05-06T07:45:46.605Z,12.30
2023-05-06T07:48:49.282Z,12.02
2023-05-06T07:51:51.262Z,12.45
2023-05-06T07:54:53.290Z,12.32
2023-05-06T07:57:55.378Z,11.70
2023-05-06T08:00:57.979Z,10.85
2023-05-06T08:04:00.761Z,14.40
2023-05-06T08:07:02.583Z,12.55
2023-05-06T08:10:04.953Z,13.27
2023-05-06T08:13:06.830Z,11.45
2023-05-06T08:16:08.957Z,12.25
2023-05-06T08:19:11.374Z,13.63
2023-05-06T08:22:13.056Z,9.95
2023-05-06T08:25:15.091Z,8.73
2023-05-06T08:28:17.980Z,10.57
2023-05-06T08:31:20.056Z,9.77
2023-05-06T08:34:22.368Z,10.48
2023-05-06T08:37:24.506Z,10.07
2023-05-06T08:40:27.259Z,9.73
2023-05-06T08:43:33.235Z,11.10
2023-05-06T08:46:35.728Z,9.32
2023-05-06T08:49:37.509Z,9.98
2023-05-06T08:52:40.237Z,8.40
2023-05-06T08:55:42.648Z,9.82
2023-05-06T08:58:52.003Z,10.02
2023-05-06T09:01:53.650Z,9.55
2023-05-06T09:04:56.720Z,11.02
2023-05-06T09:07:58.599Z,9.15
2023-05-06T09:11:00.467Z,9.15
2023-05-06T09:14:10.125Z,8.75
2023-05-06T09:17:29.165Z,10.10
2023-05-06T09:20:40.197Z,9.40
2023-05-06T09:23:42.239Z,10.18
2023-05-06T09:26:47.272Z,9.57
2023-05-06T09:30:07.129Z,9.27
2023-05-06T09:33:12.674Z,14.10
2023-05-06T09:36:15.637Z,10.10
2023-05-06T09:39:17.807Z,10.93
2023-05-06T09:42:21.768Z,10.02
2023-05-06T09:45:24.397Z,11.35
2023-05-06T09:48:32.474Z,12.70
2023-05-06T09:51:34.933Z,13.18
2023-05-06T09:54:36.972Z,12.57
2023-05-06T09:57:40.864Z,11.25
2023-05-06T10:00:43.829Z,10.68
2023-05-06T10:03:46.457Z,13.63
2023-05-06T10:06:49.766Z,9.70
2023-05-06T10:09:54.405Z,8.77
2023-05-06T10:12:56.785Z,10.70
2023-05-06T10:16:02.929Z,9.70
2023-05-06T10:19:08.199Z,9.18
2023-05-06T10:22:30.647Z,11.65
2023-05-06T10:25:43.761Z,10.45
2023-05-06T10:28:50.157Z,9.75
2023-05-06T10:31:57.209Z,9.38
2023-05-06T10:35:09.727Z,10.45
2023-05-06T10:38:37.493Z,9.25
2023-05-06T10:41:40.413Z,10.70
2023-05-06T10:45:03.823Z,9.75
2023-05-06T10:48:11.595Z,9.30
2023-05-06T10:51:20.406Z,8.45
2023-05-06T10:54:23.648Z,9.77
2023-05-06T10:57:27.430Z,11.18
2023-05-06T11:00:34.315Z,10.00
2023-05-06T11:03:36.659Z,10.70
2023-05-06T11:06:54.393Z,11.10
2023-05-06T11:10:08.291Z,10.30
2023-05-06T11:13:29.242Z,7.13
2023-05-06T11:16:50.556Z,8.35
2023-05-06T11:20:33.402Z,8.55
2023-05-06T11:23:50.733Z,9.20
2023-05-06T11:26:52.988Z,9.52
2023-05-06T11:29:55.862Z,9.52
2023-05-06T11:33:05.425Z,11.13
2023-05-06T11:36:14.191Z,12.88
2023-05-06T11:39:16.041Z,13.80
2023-05-06T11:42:25.231Z,10.55
2023-05-06T11:45:39.911Z,11.73
2023-05-06T11:48:43.662Z,10.00
2023-05-06T11:51:48.756Z,10.63
2023-05-06T11:54:54.034Z,8.23
2023-05-06T11:57:56.158Z,8.40
2023-05-06T12:01:03.142Z,9.93
2023-05-06T12:04:05.879Z,10.80
2023-05-06T12:07:10.184Z,9.40
2023-05-06T12:10:12.435Z,8.73
2023-05-06T12:13:16.404Z,8.90
2023-05-06T12:16:18.409Z,10.20
2023-05-06T12:19:21.611Z,8.52
2023-05-06T12:22:27.108Z,11.07
2023-05-06T12:25:29.232Z,10.98
2023-05-06T12:28:32.770Z,9.38
2023-05-06T12:31:35.502Z,10.57
2023-05-06T12:34:43.907Z,9.85
2023-05-06T12:37:45.936Z,11.50
2023-05-06T12:40:56.506Z,14.05
2023-05-06T12:43:58.432Z,13.48
2023-05-06T12:47:01.792Z,13.65
2023-05-06T12:50:04.061Z,13.32
2023-05-06T12:53:08.116Z,15.32
2023-05-06T12:56:10.229Z,14.88
2023-05-06T12:59:13.918Z,13.02
2023-05-06T13:02:16.243Z,11.68
2023-05-06T13:05:18.328Z,12.93
2023-05-06T13:08:20.028Z,12.88
2023-05-06T13:11:22.418Z,10.30
2023-05-06T13:14:24.593Z,10.93
2023-05-06T13:17:27.671Z,9.18
2023-05-06T13:20:32.874Z,10.65
2023-05-06T13:23:36.743Z,12.05
2023-05-06T13:26:38.925Z,10.88
2023-05-06T13:29:41.184Z,8.68
2023-05-06T13:32:42.981Z,6.97
2023-05-06T13:35:49.826Z,10.43
2023-05-06T13:38:52.356Z,9.65
2023-05-06T13:41:54.380Z,12.93
2023-05-06T13:44:56.660Z,8.95
2023-05-06T13:47:58.771Z,9.50
2023-05-06T13:51:00.872Z,9.48
2023-05-06T13:54:04.372Z,8.60
2023-05-06T13:57:06.394Z,10.30
2023-05-06T14:00:11.134Z,9.70
2023-05-06T14:03:13.057Z,9.73
2023-05-06T14:06:15.438Z,8.20
2023-05-06T14:09:19.135Z,8.30
2023-05-06T14:12:23.180Z,7.38
2023-05-06T14:15:25.081Z,8.60
2023-05-06T14:18:27.887Z,7.20
2023-05-06T14:21:29.875Z,8.90
2023-05-06T14:24:32.276Z,7.05
2023-05-06T14:27:34.241Z,6.22
2023-05-06T14:30:37.217Z,6.70
2023-05-06T14:33:39.442Z,6.07
2023-05-06T14:36:41.576Z,5.78
2023-05-06T14:39:43.713Z,6.20
2023-05-06T14:42:46.298Z,5.85
2023-05-06T14:45:49.034Z,4.45
2023-05-06T14:48:51.224Z,5.78
2023-05-06T14:51:53.670Z,4.28
2023-05-06T14:54:56.210Z,5.45
2023-05-06T14:57:58.569Z,3.78
2023-05-06T15:01:00.568Z,3.83
2023-05-06T15:04:05.255Z,4.53
2023-05-06T15:07:08.605Z,4.55
2023-05-06T15:10:12.052Z,5.70
2023-05-06T15:13:14.081Z,3.92
2023-05-06T15:16:16.723Z,8.95
2023-05-06T15:19:18.947Z,4.05
2023-05-06T15:22:20.769Z,4.50
2023-05-06T15:25:34.147Z,4.93
2023-05-06T15:28:37.366Z,4.65
2023-05-06T15:31:40.985Z,5.78
2023-05-06T15:34:43.114Z,5.35
2023-05-06T15:37:45.406Z,5.63
2023-05-06T15:40:51.346Z,3.35
2023-05-06T15:44:00.344Z,4.18
2023-05-06T15:47:02.410Z,3.03
2023-05-06T15:50:16.367Z,3.38
2023-05-06T15:53:25.339Z,4.13
2023-05-06T15:56:27.344Z,4.93
2023-05-06T15:59:29.555Z,2.80
2023-05-06T16:02:32.746Z,4.07
2023-05-06T16:05:34.894Z,3.20
2023-05-06T16:08:38.280Z,3.58
2023-05-06T16:11:40.043Z,2.75
2023-05-06T16:14:42.062Z,3.08
2023-05-06T16:17:43.816Z,4.88
2023-05-06T16:20:45.650Z,2.15
2023-05-06T16:23:47.513Z,3.97
2023-05-06T16:26:50.559Z,2.90
2023-05-06T16:29:52.384Z,4.03
2023-05-06T16:32:54.473Z,3.53
2023-05-06T16:35:57.047Z,3.92
2023-05-06T16:38:58.854Z,3.97
2023-05-06T16:42:00.913Z,3.78
2023-05-06T16:45:02.722Z,5.03
2023-05-06T16:48:05.129Z,3.10
2023-05-06T16:51:07.106Z,3.28
2023-05-06T16:54:09.032Z,3.75
2023-05-06T16:57:11.170Z,5.68
2023-05-06T17:00:13.740Z,3.45
2023-05-06T17:03:16.308Z,3.35
2023-05-06T17:06:18.287Z,2.47
2023-05-06T17:09:20.619Z,5.00
2023-05-06T17:12:23.865Z,3.15
2023-05-06T17:15:25.812Z,3.33
2023-05-06T17:18:27.877Z,3.85
2023-05-06T17:21:29.902Z,4.68
2023-05-06T17:24:32.965Z,2.78
2023-05-06T17:27:34.968Z,5.72
2023-05-06T17:30:36.836Z,5.13
2023-05-06T17:33:39.219Z,11.02
2023-05-06T17:36:41.076Z,9.95
2023-05-06T17:39:42.929Z,9.02
2023-05-06T17:42:44.762Z,10.52
2023-05-06T17:45:47.016Z,9.00
2023-05-06T17:48:49.109Z,10.10
2023-05-06T17:51:51.315Z,11.05
2023-05-06T17:55:10.734Z,10.18
2023-05-06T17:58:16.675Z,12.23
2023-05-06T18:01:18.503Z,15.02
2023-05-06T18:04:20.815Z,12.93
2023-05-06T18:07:22.820Z,11.77
2023-05-06T18:10:24.640Z,14.30
2023-05-06T18:13:27.578Z,12.68
2023-05-06T18:16:29.383Z,12.23
2023-05-06T18:19:31.104Z,10.82
2023-05-06T18:22:32.934Z,10.98
2023-05-06T18:25:34.885Z,12.48
2023-05-06T18:28:43.232Z,12.35
2023-05-06T18:31:45.386Z,10.95
2023-05-06T18:34:47.523Z,9.85
2023-05-06T18:37:49.231Z,12.15
2023-05-06T18:40:51.129Z,11.82
2023-05-06T18:43:52.994Z,10.07
2023-05-06T18:46:54.891Z,10.27
2023-05-06T18:49:57.659Z,10.73
2023-05-06T18:53:00.412Z,12.27
2023-05-06T18:56:02.288Z,10.98
2023-05-06T18:59:05.096Z,11.25
2023-05-06T19:02:08.195Z,9.98
2023-05-06T19:05:10.360Z,10.75
2023-05-06T19:08:13.748Z,12.25
2023-05-06T19:11:16.911Z,11.65
2023-05-06T19:14:19.316Z,12.70
2023-05-06T19:17:21.014Z,11.73
2023-05-06T19:20:22.792Z,11.07
2023-05-06T19:23:24.502Z,15.18
2023-05-06T19:26:27.181Z,14.20
2023-05-06T19:29:28.765Z,13.98
2023-05-06T19:32:32.740Z,14.18
2023-05-06T19:35:37.376Z,14.40
2023-05-06T19:38:38.996Z,14.07
2023-05-06T19:41:40.895Z,15.80
2023-05-06T19:44:42.675Z,15.48
2023-05-06T19:47:44.503Z,15.88
2023-05-06T19:50:46.143Z,16.55
2023-05-06T19:53:49.148Z,16.30
2023-05-06T19:56:50.880Z,16.38
2023-05-06T19:59:53.483Z,14.73
2023-05-06T20:02:57.820Z,13.65
2023-05-06T20:05:59.738Z,17.52
2023-05-06T20:09:01.573Z,16.02
2023-05-06T20:12:03.776Z,17.15
2023-05-06T20:15:07.256Z,15.77
2023-05-06T20:18:09.594Z,16.80
2023-05-06T20:21:11.651Z,16.75
2023-05-06T20:24:13.773Z,17.63
2023-05-06T20:27:16.407Z,16.58
2023-05-06T20:30:18.355Z,16.75
2023-05-06T20:33:20.190Z,18.35
2023-05-06T20:36:22.063Z,16.67
2023-05-06T20:39:23.960Z,17.92
2023-05-06T20:42:25.806Z,16.73
2023-05-06T20:45:30.033Z,20.45
2023-05-06T20:48:32.103Z,19.35
2023-05-06T20:51:34.246Z,19.92
2023-05-06T20:54:36.023Z,19.73
2023-05-06T20:57:42.280Z,19.58
2023-05-06T21:00:44.073Z,17.25
2023-05-06T21:03:48.876Z,18.38
2023-05-06T21:06:50.967Z,19.08
2023-05-06T21:09:52.762Z,20.23
2023-05-06T21:12:54.812Z,16.85
2023-05-06T21:15:56.812Z,19.02
2023-05-06T21:18:58.777Z,16.58
2023-05-06T21:22:00.695Z,16.42
2023-05-06T21:25:02.379Z,17.27
2023-05-06T21:28:06.277Z,16.02
2023-05-06T21:31:08.220Z,21.75
2023-05-06T21:34:10.752Z,14.82
2023-05-06T21:37:12.622Z,16.27
2023-05-06T21:40:14.498Z,18.90
2023-05-06T21:43:18.075Z,16.50
2023-05-06T21:46:19.923Z,14.25
2023-05-06T21:49:22.304Z,16.02
2023-05-06T21:52:24.654Z,18.38
2023-05-06T21:55:27.675Z,18.70
2023-05-06T21:58:29.389Z,15.23
2023-05-06T22:01:32.157Z,16.90
2023-05-06T22:04:33.894Z,15.45
2023-05-06T22:07:36.047Z,19.45
2023-05-06T22:10:37.874Z,14.48
2023-05-06T22:13:39.698Z,17.88
2023-05-06T22:16:42.960Z,16.40
2023-05-06T22:19:44.851Z,15.52
2023-05-06T22:22:47.037Z,14.35
2023-05-06T22:25:48.815Z,16.90
2023-05-06T22:28:50.696Z,14.98
2023-05-06T22:31:52.539Z,15.07
2023-05-06T22:34:55.496Z,13.57
2023-05-06T22:37:57.149Z,16.50
2023-05-06T22:40:59.036Z,16.65
2023-05-06T22:44:00.845Z,15.95
2023-05-06T22:47:02.578Z,17.35
2023-05-06T22:50:04.656Z,14.18
2023-05-06T22:53:14.374Z,15.07
2023-05-06T22:56:17.169Z,15.20
2023-05-06T22:59:19.030Z,16.40
2023-05-06T23:02:20.813Z,19.15
2023-05-06T23:05:22.555Z,18.45
2023-05-06T23:08:24.432Z,19.08
2023-05-06T23:11:26.351Z,18.90
2023-05-06T23:14:28.748Z,20.77
2023-05-06T23:17:30.926Z,19.33
2023-05-06T23:20:32.912Z,22.73
2023-05-06T23:23:34.756Z,24.38
2023-05-06T23:26:36.810Z,22.88
2023-05-06T23:29:38.670Z,27.13
2023-05-06T23:32:40.538Z,27.17
2023-05-06T23:35:43.413Z,28.33
2023-05-06T23:38:45.201Z,28.75
2023-05-06T23:41:48.057Z,27.63
2023-05-06T23:44:49.802Z,30.00
2023-05-06T23:47:52.240Z,29.40
2023-05-06T23:50:54.528Z,32.90
2023-05-06T23:53:56.440Z,31.88
2023-05-06T23:56:58.275Z,34.42
2023-05-06T23:59:59.959Z,30.80
